Time;durP1;ratioP1;P1;durP2;ratioP2;P2;SDS_P1;SDS_P2;PMS_P1;PMS_P2;Temp;Humidity;BMP_temperature;BMP_pressure;BME280_temperature;BME280_humidity;BME280_pressure;Samples;Min_cycle;Max_cycle;Signal;HPM_P1;HPM_P2
2022/11/08 00:03:33;;;;;;;3.25;1.98;;;;;;;;;;5053608;28;20102;-76
2022/11/08 00:14:09;;;;;;;5.78;1.85;;;;;;;;;;5052975;28;20055;-76
2022/11/08 00:16:35;;;;;;;5.15;1.98;;;;;;;;;;5052933;28;20025;-76
2022/11/08 00:19:00;;;;;;;7.18;2.47;;;;;;;;;;5052831;28;20032;-77
2022/11/08 00:21:25;;;;;;;9.73;2.15;;;;;;;;;;5052815;28;20064;-76
2022/11/08 00:23:51;;;;;;;5.03;2.10;;;;;;;;;;5034995;28;20021;-76
2022/11/08 00:26:16;;;;;;;6.93;2.33;;;;;;;;;;5034933;28;20048;-76
2022/11/08 00:28:41;;;;;;;4.75;2.33;;;;;;;;;;5053040;28;20063;-76
2022/11/08 00:31:06;;;;;;;5.38;2.10;;;;;;;;;;5051496;28;20029;-76
2022/11/08 00:33:32;;;;;;;5.20;2.17;;;;;;;;;;5051418;28;20032;-77
2022/11/08 00:35:58;;;;;;;4.10;2.00;;;;;;;;;;5034862;28;20028;-76
2022/11/08 00:38:23;;;;;;;4.32;1.90;;;;;;;;;;5034901;28;20478;-76
2022/11/08 00:40:49;;;;;;;4.93;2.00;;;;;;;;;;5052558;28;20043;-77
2022/11/08 00:43:14;;;;;;;6.93;1.92;;;;;;;;;;5034914;28;20020;-78
2022/11/08 00:45:39;;;;;;;4.82;2.00;;;;;;;;;;5034854;28;20027;-77
2022/11/08 00:48:04;;;;;;;5.03;2.42;;;;;;;;;;5052579;28;20081;-77
2022/11/08 00:50:30;;;;;;;5.63;2.10;;;;;;;;;;5052562;28;20497;-77
2022/11/08 00:52:55;;;;;;;6.68;2.03;;;;;;;;;;5052513;28;20035;-77
2022/11/08 00:55:20;;;;;;;4.30;2.00;;;;;;;;;;5052500;28;20079;-77
2022/11/08 00:57:45;;;;;;;5.30;1.92;;;;;;;;;;5056894;28;20473;-77
2022/11/08 01:00:12;;;;;;;3.92;1.67;;;;;;;;;;5056285;28;20075;-77
2022/11/08 01:02:37;;;;;;;7.18;2.03;;;;;;;;;;5038273;28;20021;-77
2022/11/08 01:05:02;;;;;;;3.80;1.90;;;;;;;;;;5056222;28;20087;-77
2022/11/08 01:07:28;;;;;;;5.22;2.08;;;;;;;;;;5056218;28;20060;-77
2022/11/08 01:09:53;;;;;;;2.65;1.65;;;;;;;;;;5056309;28;20032;-77
2022/11/08 01:12:18;;;;;;;5.45;2.28;;;;;;;;;;5038174;28;20096;-77
2022/11/08 01:14:44;;;;;;;7.03;2.08;;;;;;;;;;5056194;28;20024;-77
2022/11/08 01:17:09;;;;;;;7.53;2.38;;;;;;;;;;5038036;28;20082;-77
2022/11/08 01:19:34;;;;;;;3.58;2.05;;;;;;;;;;5055908;28;20025;-76
2022/11/08 01:21:59;;;;;;;7.70;2.17;;;;;;;;;;5055736;28;20032;-77
2022/11/08 01:24:25;;;;;;;5.82;2.13;;;;;;;;;;5055797;28;20386;-77
2022/11/08 01:26:50;;;;;;;4.78;1.83;;;;;;;;;;5054715;28;20063;-77
2022/11/08 01:29:15;;;;;;;4.68;1.85;;;;;;;;;;5055910;28;20474;-77
2022/11/08 01:31:41;;;;;;;7.10;2.00;;;;;;;;;;5055595;28;20029;-77
2022/11/08 01:34:06;;;;;;;5.05;2.40;;;;;;;;;;5055798;28;20021;-76
2022/11/08 01:36:32;;;;;;;5.53;2.03;;;;;;;;;;5055595;28;20060;-77
2022/11/08 01:38:57;;;;;;;4.30;2.03;;;;;;;;;;5037625;28;20025;-77
2022/11/08 01:41:24;;;;;;;7.80;2.13;;;;;;;;;;5055634;28;20494;-77
2022/11/08 01:43:53;;;;;;;4.38;2.08;;;;;;;;;;5037556;28;20055;-77
2022/11/08 01:46:18;;;;;;;8.77;2.05;;;;;;;;;;5037455;28;20478;-77
2022/11/08 01:49:18;;;;;;;4.68;2.30;;;;;;;;;;5055598;28;20075;-77
2022/11/08 01:51:56;;;;;;;5.28;2.13;;;;;;;;;;5022352;28;20037;-77
2022/11/08 01:54:32;;;;;;;6.05;2.63;;;;;;;;;;5037317;28;20074;-77
2022/11/08 01:57:01;;;;;;;4.00;2.05;;;;;;;;;;5055495;28;20024;-76
2022/11/08 01:59:27;;;;;;;6.68;2.25;;;;;;;;;;5054973;28;20036;-76
2022/11/08 02:01:53;;;;;;;7.97;3.30;;;;;;;;;;5037211;28;20025;-76
2022/11/08 02:04:18;;;;;;;9.30;3.38;;;;;;;;;;5055269;28;20446;-76
2022/11/08 02:06:43;;;;;;;10.18;2.90;;;;;;;;;;5055007;28;20098;-76
2022/11/08 02:09:14;;;;;;;6.38;2.70;;;;;;;;;;5053126;28;20048;-77
2022/11/08 02:11:40;;;;;;;9.60;2.58;;;;;;;;;;5055159;28;20025;-75
2022/11/08 02:14:06;;;;;;;7.75;2.42;;;;;;;;;;5055061;28;20029;-77
2022/11/08 02:16:31;;;;;;;6.70;2.50;;;;;;;;;;5055033;28;20040;-77
2022/11/08 02:18:57;;;;;;;4.78;2.63;;;;;;;;;;5054867;28;20108;-76
2022/11/08 02:21:39;;;;;;;8.43;2.72;;;;;;;;;;5054916;28;20028;-77
2022/11/08 02:24:10;;;;;;;8.27;3.00;;;;;;;;;;5054972;28;20020;-77
2022/11/08 02:26:36;;;;;;;8.55;2.90;;;;;;;;;;5036840;28;20028;-77
2022/11/08 02:29:40;;;;;;;5.90;2.55;;;;;;;;;;5054851;28;20033;-77
2022/11/08 02:32:06;;;;;;;6.38;2.88;;;;;;;;;;4957775;28;20065;-77
2022/11/08 02:34:36;;;;;;;8.63;3.47;;;;;;;;;;4957452;28;20062;-77
2022/11/08 02:37:04;;;;;;;6.38;3.00;;;;;;;;;;5013820;28;20028;-77
2022/11/08 02:39:31;;;;;;;7.55;3.08;;;;;;;;;;5054611;28;20031;-77
2022/11/08 02:41:57;;;;;;;5.60;2.38;;;;;;;;;;5054701;28;20421;-77
2022/11/08 02:44:22;;;;;;;6.53;3.38;;;;;;;;;;5036451;28;20021;-77
2022/11/08 02:46:47;;;;;;;7.15;2.72;;;;;;;;;;5054807;28;20052;-76
2022/11/08 02:49:12;;;;;;;5.15;2.80;;;;;;;;;;5054268;28;20036;-77
2022/11/08 02:51:38;;;;;;;7.35;2.85;;;;;;;;;;5053976;28;20083;-76
2022/11/08 02:54:03;;;;;;;7.22;3.25;;;;;;;;;;5054015;28;20032;-77
2022/11/08 02:56:29;;;;;;;6.75;3.17;;;;;;;;;;5054328;28;20036;-77
2022/11/08 02:58:54;;;;;;;8.30;3.45;;;;;;;;;;5054238;28;20017;-77
2022/11/08 03:01:20;;;;;;;9.48;2.95;;;;;;;;;;5052622;28;20082;-76
2022/11/08 03:03:45;;;;;;;6.80;2.95;;;;;;;;;;5054207;28;20016;-77
2022/11/08 03:06:10;;;;;;;12.75;3.35;;;;;;;;;;5054189;28;20491;-77
2022/11/08 03:08:35;;;;;;;6.82;2.97;;;;;;;;;;5053979;28;20021;-77
2022/11/08 03:11:01;;;;;;;8.13;3.42;;;;;;;;;;5052438;28;20017;-76
2022/11/08 03:13:26;;;;;;;9.18;3.50;;;;;;;;;;5053686;28;20025;-76
2022/11/08 03:15:52;;;;;;;9.18;3.90;;;;;;;;;;5053664;28;20071;-78
2022/11/08 03:18:17;;;;;;;10.63;3.60;;;;;;;;;;5053638;28;20024;-76
2022/11/08 03:20:42;;;;;;;7.55;3.17;;;;;;;;;;5052663;28;20037;-76
2022/11/08 03:23:07;;;;;;;7.82;3.38;;;;;;;;;;5054103;28;20382;-77
2022/11/08 03:25:33;;;;;;;9.35;3.58;;;;;;;;;;5053800;28;20021;-77
2022/11/08 03:28:03;;;;;;;6.18;3.45;;;;;;;;;;5053854;28;20025;-77
2022/11/08 03:30:29;;;;;;;6.90;3.20;;;;;;;;;;5053423;28;20433;-77
2022/11/08 03:32:54;;;;;;;6.57;3.40;;;;;;;;;;5053355;28;20074;-76
2022/11/08 03:35:19;;;;;;;8.73;3.63;;;;;;;;;;5053633;28;20036;-77
2022/11/08 03:37:50;;;;;;;9.02;3.35;;;;;;;;;;5053521;28;20141;-76
2022/11/08 03:40:15;;;;;;;10.23;3.70;;;;;;;;;;5035447;28;20039;-77
2022/11/08 03:42:41;;;;;;;7.47;3.90;;;;;;;;;;5053560;28;20033;-76
2022/11/08 03:45:06;;;;;;;15.15;5.32;;;;;;;;;;5053634;28;20379;-77
2022/11/08 03:47:36;;;;;;;11.45;4.88;;;;;;;;;;5035451;28;20025;-77
2022/11/08 03:50:02;;;;;;;11.82;5.05;;;;;;;;;;5053040;28;20441;-77
2022/11/08 03:52:27;;;;;;;14.07;4.75;;;;;;;;;;5053122;28;20029;-76
2022/11/08 03:54:52;;;;;;;9.68;5.03;;;;;;;;;;5053466;28;20070;-77
2022/11/08 03:57:17;;;;;;;11.10;5.18;;;;;;;;;;5035248;28;20382;-77
2022/11/08 03:59:43;;;;;;;8.93;4.40;;;;;;;;;;5053208;28;20021;-76
2022/11/08 04:02:08;;;;;;;8.45;4.07;;;;;;;;;;5052101;28;20055;-76
2022/11/08 04:04:33;;;;;;;9.13;4.07;;;;;;;;;;5053224;28;20104;-77
2022/11/08 04:06:58;;;;;;;8.00;3.90;;;;;;;;;;5052107;28;20115;-77
2022/11/08 04:09:24;;;;;;;11.05;3.88;;;;;;;;;;5053189;28;20017;-77
2022/11/08 04:21:17;;;;;;;8.68;3.85;;;;;;;;;;5053532;28;20035;-76
2022/11/08 04:22:49;;;;;;;10.70;4.07;;;;;;;;;;5053007;28;20028;-77
2022/11/08 04:25:14;;;;;;;7.55;3.90;;;;;;;;;;5053034;28;20017;-77
2022/11/08 04:27:39;;;;;;;9.10;4.05;;;;;;;;;;5053114;28;20099;-76
2022/11/08 04:30:05;;;;;;;9.30;3.60;;;;;;;;;;5051418;28;20124;-76
2022/11/08 04:32:30;;;;;;;8.68;3.97;;;;;;;;;;5056523;28;20051;-76
2022/11/08 04:34:56;;;;;;;8.75;3.53;;;;;;;;;;5039031;28;20029;-76
2022/11/08 04:37:21;;;;;;;9.98;3.80;;;;;;;;;;5056705;28;20051;-76
2022/11/08 04:39:46;;;;;;;6.78;4.05;;;;;;;;;;5056685;28;20116;-75
2022/11/08 04:42:11;;;;;;;14.25;4.70;;;;;;;;;;5056882;28;20025;-77
2022/11/08 04:44:37;;;;;;;8.63;4.30;;;;;;;;;;5056561;28;20017;-76
2022/11/08 04:47:02;;;;;;;8.85;3.97;;;;;;;;;;5055661;28;20413;-76
2022/11/08 04:49:27;;;;;;;9.27;4.50;;;;;;;;;;5056592;28;20025;-76
2022/11/08 04:51:52;;;;;;;11.40;4.10;;;;;;;;;;5056397;28;20064;-77
2022/11/08 04:54:18;;;;;;;6.93;3.90;;;;;;;;;;5056628;28;20419;-77
2022/11/08 04:56:43;;;;;;;11.32;4.43;;;;;;;;;;5056940;28;20032;-78
2022/11/08 04:59:08;;;;;;;10.23;4.25;;;;;;;;;;5038512;28;20028;-76
2022/11/08 05:01:35;;;;;;;9.32;3.92;;;;;;;;;;5056690;28;20024;-76
2022/11/08 05:04:00;;;;;;;14.07;5.60;;;;;;;;;;5038571;28;20478;-79
2022/11/08 05:06:30;;;;;;;9.63;5.00;;;;;;;;;;5056648;28;20048;-77
2022/11/08 05:08:57;;;;;;;8.30;4.45;;;;;;;;;;5056613;28;20386;-77
2022/11/08 05:11:25;;;;;;;11.05;4.70;;;;;;;;;;5056139;28;20107;-76
2022/11/08 05:13:51;;;;;;;13.07;4.72;;;;;;;;;;5056145;28;20025;-76
2022/11/08 05:16:25;;;;;;;11.48;5.00;;;;;;;;;;5054854;28;20029;-76
2022/11/08 05:18:51;;;;;;;10.77;4.57;;;;;;;;;;5056215;28;20052;-77
2022/11/08 05:24:04;;;;;;;11.40;5.03;;;;;;;;;;5056832;28;20060;-77
2022/11/08 05:26:31;;;;;;;15.75;5.43;;;;;;;;;;5056729;28;20397;-77
2022/11/08 05:28:57;;;;;;;13.00;5.32;;;;;;;;;;5057112;28;20025;-79
2022/11/08 05:31:22;;;;;;;11.38;4.82;;;;;;;;;;5056018;28;20029;-77
2022/11/08 05:33:47;;;;;;;14.10;4.60;;;;;;;;;;5056442;28;20074;-77
2022/11/08 05:36:15;;;;;;;9.63;5.03;;;;;;;;;;5055984;28;20028;-77
2022/11/08 05:38:41;;;;;;;11.80;4.25;;;;;;;;;;5056133;28;20489;-77
2022/11/08 05:41:10;;;;;;;9.77;4.18;;;;;;;;;;5038011;28;20032;-76
2022/11/08 05:43:36;;;;;;;11.25;4.65;;;;;;;;;;5054469;28;20020;-76
2022/11/08 05:46:02;;;;;;;12.85;4.47;;;;;;;;;;5055509;28;20067;-77
2022/11/08 05:48:27;;;;;;;13.38;4.18;;;;;;;;;;5055336;28;20409;-76
2022/11/08 05:50:53;;;;;;;9.02;4.78;;;;;;;;;;5037255;28;20040;-76
2022/11/08 05:53:18;;;;;;;7.95;4.53;;;;;;;;;;5055397;28;20028;-76
2022/11/08 05:55:43;;;;;;;7.25;4.22;;;;;;;;;;5056119;28;20024;-77
2022/11/08 05:58:08;;;;;;;9.63;4.05;;;;;;;;;;5055759;28;20494;-77
2022/11/08 06:00:34;;;;;;;12.27;5.07;;;;;;;;;;5055263;28;20025;-77
2022/11/08 06:03:04;;;;;;;12.60;4.55;;;;;;;;;;5055303;28;20108;-76
2022/11/08 06:08:13;;;;;;;9.93;4.80;;;;;;;;;;5055473;28;20086;-76
2022/11/08 06:10:38;;;;;;;11.02;4.47;;;;;;;;;;5054903;28;20024;-76
2022/11/08 06:13:03;;;;;;;11.88;4.85;;;;;;;;;;5037149;28;20032;-77
2022/11/08 06:15:29;;;;;;;10.85;4.30;;;;;;;;;;5055125;28;20462;-77
2022/11/08 06:17:54;;;;;;;14.32;4.43;;;;;;;;;;5055216;28;20059;-77
2022/11/08 06:20:19;;;;;;;9.82;4.60;;;;;;;;;;5053537;28;20021;-76
2022/11/08 06:22:44;;;;;;;13.02;4.75;;;;;;;;;;5053330;28;20493;-76
2022/11/08 06:25:10;;;;;;;12.38;4.57;;;;;;;;;;5055032;28;20055;-76
2022/11/08 06:27:35;;;;;;;9.57;4.68;;;;;;;;;;5036790;28;20493;-76
2022/11/08 06:30:02;;;;;;;9.82;4.80;;;;;;;;;;5054403;28;20021;-77
2022/11/08 06:32:27;;;;;;;17.50;4.80;;;;;;;;;;5054788;28;20033;-77
2022/11/08 06:34:52;;;;;;;10.07;4.97;;;;;;;;;;5054458;28;20048;-77
2022/11/08 06:37:18;;;;;;;10.02;4.43;;;;;;;;;;5054413;28;20021;-77
2022/11/08 06:39:43;;;;;;;9.95;4.93;;;;;;;;;;5054395;28;20029;-76
2022/11/08 06:42:09;;;;;;;8.50;4.22;;;;;;;;;;5054323;28;20496;-76
2022/11/08 06:44:34;;;;;;;13.07;5.35;;;;;;;;;;5054358;28;20012;-77
2022/11/08 06:47:00;;;;;;;11.40;4.82;;;;;;;;;;5054860;28;20023;-77
2022/11/08 06:49:25;;;;;;;14.13;4.88;;;;;;;;;;5036603;28;20474;-76
2022/11/08 06:51:51;;;;;;;10.60;4.43;;;;;;;;;;5054150;28;20033;-77
2022/11/08 06:54:17;;;;;;;10.98;4.90;;;;;;;;;;5054067;28;20029;-77
2022/11/08 06:56:43;;;;;;;13.13;5.60;;;;;;;;;;5036233;28;20028;-77
2022/11/08 06:59:08;;;;;;;11.05;5.47;;;;;;;;;;5054294;28;20085;-77
2022/11/08 07:01:35;;;;;;;9.88;4.50;;;;;;;;;;5036345;28;20032;-78
2022/11/08 07:04:00;;;;;;;13.98;4.63;;;;;;;;;;5054323;28;20044;-77
2022/11/08 07:06:26;;;;;;;11.35;4.10;;;;;;;;;;5054159;28;20052;-77
2022/11/08 07:08:51;;;;;;;5.93;3.78;;;;;;;;;;5054028;28;20021;-77
2022/11/08 07:11:16;;;;;;;9.57;4.38;;;;;;;;;;5053033;28;20021;-78
2022/11/08 07:13:41;;;;;;;8.88;3.83;;;;;;;;;;5054040;28;20088;-76
2022/11/08 07:16:07;;;;;;;9.07;4.13;;;;;;;;;;5053766;28;20021;-77
2022/11/08 07:18:33;;;;;;;8.95;3.92;;;;;;;;;;5053542;28;20493;-77
2022/11/08 07:20:59;;;;;;;11.77;4.25;;;;;;;;;;5053641;28;20033;-77
2022/11/08 07:23:24;;;;;;;11.60;4.13;;;;;;;;;;5053802;28;20105;-76
2022/11/08 07:25:50;;;;;;;12.77;4.88;;;;;;;;;;5053836;28;20087;-76
2022/11/08 07:28:17;;;;;;;9.80;4.25;;;;;;;;;;5053802;28;20036;-77
2022/11/08 07:30:43;;;;;;;10.10;4.30;;;;;;;;;;5053442;28;20033;-77
2022/11/08 07:33:09;;;;;;;9.25;4.43;;;;;;;;;;5053458;28;20398;-76
2022/11/08 07:35:34;;;;;;;9.63;4.30;;;;;;;;;;5053756;28;20025;-76
2022/11/08 07:38:00;;;;;;;7.70;4.00;;;;;;;;;;5053605;28;20021;-76
2022/11/08 07:40:25;;;;;;;8.55;4.28;;;;;;;;;;5053567;28;20021;-77
2022/11/08 07:42:51;;;;;;;15.88;4.47;;;;;;;;;;5053677;28;20056;-77
2022/11/08 07:45:16;;;;;;;10.05;4.45;;;;;;;;;;5035426;28;20073;-76
2022/11/08 07:47:41;;;;;;;7.55;3.97;;;;;;;;;;5053187;28;20021;-77
2022/11/08 07:50:07;;;;;;;14.30;4.63;;;;;;;;;;5051569;28;20394;-76
2022/11/08 07:52:32;;;;;;;7.78;4.20;;;;;;;;;;5035250;28;20020;-77
2022/11/08 07:54:58;;;;;;;11.05;4.85;;;;;;;;;;5053352;28;20037;-75
2022/11/08 07:57:23;;;;;;;10.63;4.65;;;;;;;;;;5035344;28;20071;-76
2022/11/08 07:59:48;;;;;;;12.50;4.75;;;;;;;;;;5053561;28;20079;-76
2022/11/08 08:02:14;;;;;;;8.38;4.65;;;;;;;;;;5051866;28;20116;-76
2022/11/08 08:04:39;;;;;;;8.48;4.32;;;;;;;;;;5053171;28;20024;-76
2022/11/08 08:07:05;;;;;;;9.50;4.43;;;;;;;;;;5052521;28;20444;-76
2022/11/08 08:09:33;;;;;;;9.13;4.20;;;;;;;;;;5052865;28;20029;-76
2022/11/08 08:11:59;;;;;;;8.82;4.50;;;;;;;;;;5052828;28;20040;-78
2022/11/08 08:14:24;;;;;;;9.38;4.07;;;;;;;;;;5053191;28;20493;-77
2022/11/08 08:16:49;;;;;;;9.15;3.60;;;;;;;;;;5053178;28;20103;-76
2022/11/08 08:19:15;;;;;;;8.70;4.03;;;;;;;;;;5053205;28;20052;-76
2022/11/08 08:21:40;;;;;;;6.72;3.70;;;;;;;;;;5053111;28;20025;-77
2022/11/08 08:24:06;;;;;;;11.25;3.80;;;;;;;;;;5053117;28;20467;-77
2022/11/08 08:26:31;;;;;;;7.30;4.10;;;;;;;;;;5051678;28;20064;-75
2022/11/08 08:28:56;;;;;;;6.50;3.90;;;;;;;;;;5053009;28;20079;-77
2022/11/08 08:31:21;;;;;;;7.32;3.88;;;;;;;;;;5052877;28;20425;-78
2022/11/08 08:33:47;;;;;;;7.78;3.90;;;;;;;;;;5053087;28;20071;-75
2022/11/08 08:36:12;;;;;;;8.80;3.95;;;;;;;;;;5053172;28;20040;-76
2022/11/08 08:38:38;;;;;;;7.00;3.85;;;;;;;;;;5053095;28;20036;-76
2022/11/08 08:41:03;;;;;;;9.10;3.88;;;;;;;;;;5051566;28;20124;-77
2022/11/08 08:43:31;;;;;;;10.00;4.40;;;;;;;;;;5052760;28;20489;-76
2022/11/08 08:46:00;;;;;;;10.85;3.67;;;;;;;;;;5052819;28;20021;-76
2022/11/08 08:48:25;;;;;;;7.07;3.90;;;;;;;;;;5052678;28;20028;-77
2022/11/08 08:50:51;;;;;;;12.00;5.68;;;;;;;;;;5052934;28;20032;-76
2022/11/08 08:53:16;;;;;;;9.77;4.05;;;;;;;;;;5034629;28;20474;-76
2022/11/08 08:55:41;;;;;;;7.35;4.05;;;;;;;;;;5051342;28;20025;-77
2022/11/08 08:58:08;;;;;;;8.60;3.92;;;;;;;;;;5035324;28;20025;-75
2022/11/08 09:00:34;;;;;;;7.35;3.42;;;;;;;;;;5034599;28;20170;-77
2022/11/08 09:03:07;;;;;;;7.03;3.70;;;;;;;;;;5052652;28;20107;-76
2022/11/08 09:05:33;;;;;;;10.13;3.97;;;;;;;;;;5052616;28;20032;-76
2022/11/08 09:07:59;;;;;;;7.32;3.50;;;;;;;;;;5052261;28;20486;-76
2022/11/08 09:10:24;;;;;;;6.22;3.58;;;;;;;;;;5052167;28;20040;-76
2022/11/08 09:12:50;;;;;;;8.95;4.20;;;;;;;;;;5052455;28;20071;-75
2022/11/08 09:15:16;;;;;;;9.00;3.58;;;;;;;;;;5034506;28;20448;-75
2022/11/08 09:17:41;;;;;;;8.15;3.05;;;;;;;;;;5052982;28;20031;-76
2022/11/08 09:20:07;;;;;;;8.57;3.75;;;;;;;;;;5056098;28;20037;-76
2022/11/08 09:22:33;;;;;;;8.40;3.40;;;;;;;;;;5055849;28;20041;-76
2022/11/08 09:24:58;;;;;;;6.45;3.10;;;;;;;;;;5055988;28;20028;-76
2022/11/08 09:27:23;;;;;;;11.80;3.38;;;;;;;;;;5055994;28;20550;-76
2022/11/08 09:29:49;;;;;;;6.53;3.42;;;;;;;;;;5055950;28;20033;-75
2022/11/08 09:32:14;;;;;;;11.45;3.22;;;;;;;;;;5055873;28;20044;-77
2022/11/08 09:34:39;;;;;;;9.07;3.20;;;;;;;;;;5055459;28;20025;-77
2022/11/08 09:37:04;;;;;;;6.65;3.30;;;;;;;;;;5055607;28;20040;-76
2022/11/08 09:39:30;;;;;;;7.78;3.00;;;;;;;;;;5055773;28;20025;-75
2022/11/08 09:42:25;;;;;;;6.00;2.95;;;;;;;;;;5056031;28;20020;-76
2022/11/08 09:45:08;;;;;;;8.75;3.08;;;;;;;;;;5037653;28;20375;-75
2022/11/08 09:47:37;;;;;;;11.53;2.90;;;;;;;;;;5055720;28;20074;-76
2022/11/08 09:50:16;;;;;;;9.18;3.28;;;;;;;;;;5055196;28;20032;-76
2022/11/08 09:52:44;;;;;;;6.38;3.03;;;;;;;;;;5055194;28;20028;-76
2022/11/08 09:55:34;;;;;;;5.50;2.83;;;;;;;;;;5055277;28;20034;-76
2022/11/08 09:58:23;;;;;;;6.60;2.75;;;;;;;;;;5055227;28;20063;-76
2022/11/08 10:00:52;;;;;;;8.57;2.65;;;;;;;;;;5044413;28;20037;-75
2022/11/08 10:03:20;;;;;;;6.45;2.83;;;;;;;;;;5055184;28;20414;-76
2022/11/08 10:05:50;;;;;;;5.13;2.67;;;;;;;;;;5054900;28;20031;-75
2022/11/08 10:08:32;;;;;;;5.28;2.53;;;;;;;;;;5055199;28;20036;-77
2022/11/08 10:11:00;;;;;;;6.65;2.47;;;;;;;;;;5037271;28;20168;-77
2022/11/08 10:13:56;;;;;;;7.18;2.65;;;;;;;;;;5054892;28;20363;-76
2022/11/08 10:16:30;;;;;;;5.47;2.70;;;;;;;;;;5054297;28;20039;-76
2022/11/08 10:19:15;;;;;;;;;;;;;;;;;;5055543;28;20025;-76
2022/11/08 10:22:02;;;;;;;5.47;2.35;;;;;;;;;;5026403;28;19999;-76
2022/11/08 10:24:59;;;;;;;4.53;2.25;;;;;;;;;;5036907;28;20017;-76
2022/11/08 10:27:35;;;;;;;4.22;2.20;;;;;;;;;;5053645;28;20064;-75
2022/11/08 10:30:05;;;;;;;4.60;2.10;;;;;;;;;;5054308;28;20027;-76
2022/11/08 10:32:32;;;;;;;10.65;2.33;;;;;;;;;;5054781;28;20024;-76
2022/11/08 10:35:04;;;;;;;5.28;2.17;;;;;;;;;;5054427;28;20110;-76
2022/11/08 10:37:31;;;;;;;7.65;2.20;;;;;;;;;;5036510;28;20025;-76
2022/11/08 10:40:02;;;;;;;5.60;2.35;;;;;;;;;;5036432;28;20504;-76
2022/11/08 10:42:45;;;;;;;5.40;2.40;;;;;;;;;;5054723;28;20559;-76
2022/11/08 10:45:11;;;;;;;5.47;2.00;;;;;;;;;;5036521;28;20025;-75
2022/11/08 10:47:38;;;;;;;7.13;2.38;;;;;;;;;;5054409;28;20027;-75
2022/11/08 10:50:16;;;;;;;5.95;1.77;;;;;;;;;;5054135;28;20029;-76
2022/11/08 10:52:47;;;;;;;5.07;2.03;;;;;;;;;;5054552;28;20035;-77
2022/11/08 10:55:26;;;;;;;4.55;1.95;;;;;;;;;;5054139;28;20033;-76
2022/11/08 10:57:52;;;;;;;3.35;1.83;;;;;;;;;;5054339;28;20473;-76
2022/11/08 11:00:20;;;;;;;4.35;2.00;;;;;;;;;;5053980;28;20035;-76
2022/11/08 11:03:14;;;;;;;6.40;1.90;;;;;;;;;;5053896;28;20021;-76
2022/11/08 11:05:42;;;;;;;3.83;1.77;;;;;;;;;;5054448;28;20037;-76
2022/11/08 11:08:07;;;;;;;6.22;1.65;;;;;;;;;;5053994;28;20107;-76
2022/11/08 11:10:41;;;;;;;4.50;1.57;;;;;;;;;;5053879;28;20470;-75
2022/11/08 11:13:16;;;;;;;2.45;1.30;;;;;;;;;;5035871;28;20393;-77
2022/11/08 11:16:06;;;;;;;3.15;1.40;;;;;;;;;;5053805;28;20025;-76
2022/11/08 11:18:34;;;;;;;2.45;1.45;;;;;;;;;;5053142;28;20099;-76
2022/11/08 11:21:06;;;;;;;5.47;1.30;;;;;;;;;;5053730;28;20029;-76
2022/11/08 11:23:41;;;;;;;3.33;1.50;;;;;;;;;;5053773;28;20580;-73
2022/11/08 11:26:18;;;;;;;3.60;1.40;;;;;;;;;;5052407;28;20128;-76
2022/11/08 11:29:01;;;;;;;5.82;1.38;;;;;;;;;;5053831;28;20029;-77
2022/11/08 11:31:26;;;;;;;2.77;1.53;;;;;;;;;;5053570;28;20064;-77
2022/11/08 11:33:52;;;;;;;3.13;1.45;;;;;;;;;;5035519;28;20057;-77
2022/11/08 11:36:20;;;;;;;4.43;1.27;;;;;;;;;;5053337;28;20025;-77
2022/11/08 11:39:21;;;;;;;2.08;1.00;;;;;;;;;;5053289;28;20033;-76
2022/11/08 11:41:54;;;;;;;3.10;1.30;;;;;;;;;;5026881;28;20037;-76
2022/11/08 11:44:48;;;;;;;2.50;1.27;;;;;;;;;;5053578;28;20040;-76
2022/11/08 11:47:20;;;;;;;3.35;1.30;;;;;;;;;;5052518;28;20104;-76
2022/11/08 11:49:46;;;;;;;2.10;1.30;;;;;;;;;;5035543;28;20500;-76
2022/11/08 11:52:17;;;;;;;3.25;1.35;;;;;;;;;;5034904;28;20029;-75
2022/11/08 11:54:45;;;;;;;2.13;1.38;;;;;;;;;;5052950;28;20032;-76
2022/11/08 11:57:29;;;;;;;3.20;1.60;;;;;;;;;;5053001;28;20500;-75
2022/11/08 12:00:09;;;;;;;6.00;1.60;;;;;;;;;;5035480;28;20457;-77
2022/11/08 12:02:47;;;;;;;4.70;1.40;;;;;;;;;;5053630;28;20462;-75
2022/11/08 12:05:24;;;;;;;5.45;1.58;;;;;;;;;;5053759;28;20055;-76
2022/11/08 12:08:18;;;;;;;2.45;1.42;;;;;;;;;;5053029;28;20032;-76
2022/11/08 12:10:59;;;;;;;3.67;1.52;;;;;;;;;;5053375;28;20108;-76
2022/11/08 12:13:49;;;;;;;6.20;1.65;;;;;;;;;;5035567;28;20029;-76
2022/11/08 12:16:26;;;;;;;5.07;1.45;;;;;;;;;;5052938;28;20029;-76
2022/11/08 12:19:24;;;;;;;5.22;1.58;;;;;;;;;;5053074;28;20029;-76
2022/11/08 12:22:21;;;;;;;5.22;1.40;;;;;;;;;;5052733;28;20043;-76
2022/11/08 12:25:02;;;;;;;5.90;1.60;;;;;;;;;;5052733;28;20036;-76
2022/11/08 12:27:47;;;;;;;3.72;1.38;;;;;;;;;;5053239;28;20120;-76
2022/11/08 12:30:19;;;;;;;8.57;1.65;;;;;;;;;;5052844;28;20118;-75
2022/11/08 12:32:53;;;;;;;2.97;1.10;;;;;;;;;;5052863;28;20122;-75
2022/11/08 12:35:30;;;;;;;;;;;;;;;;;;5035440;28;20037;-76
2022/11/08 12:38:23;;;;;;;2.33;1.30;;;;;;;;;;5051313;28;20267;-76
2022/11/08 12:41:26;;;;;;;3.72;1.40;;;;;;;;;;5034678;28;20516;-76
2022/11/08 12:44:03;;;;;;;2.70;1.33;;;;;;;;;;5052538;28;20035;-76
2022/11/08 12:46:50;;;;;;;3.20;1.45;;;;;;;;;;5034636;28;20029;-76
2022/11/08 12:49:48;;;;;;;5.20;1.40;;;;;;;;;;5052798;28;20024;-76
2022/11/08 12:52:18;;;;;;;2.67;1.40;;;;;;;;;;5054086;28;20036;-76
2022/11/08 12:54:50;;;;;;;2.42;1.30;;;;;;;;;;5056294;28;20032;-76
2022/11/08 12:57:19;;;;;;;3.08;1.38;;;;;;;;;;5056682;28;20041;-76
2022/11/08 12:59:50;;;;;;;5.05;1.60;;;;;;;;;;5056420;28;20029;-76
2022/11/08 13:02:20;;;;;;;3.65;1.70;;;;;;;;;;5056580;28;20067;-77
2022/11/08 13:05:06;;;;;;;2.47;1.38;;;;;;;;;;5056156;28;20391;-76
2022/11/08 13:07:51;;;;;;;3.97;1.50;;;;;;;;;;5056390;28;20024;-75
2022/11/08 13:10:51;;;;;;;3.58;1.48;;;;;;;;;;5038078;28;20025;-76
2022/11/08 13:13:34;;;;;;;3.17;1.80;;;;;;;;;;5055999;28;20055;-75
2022/11/08 13:16:14;;;;;;;7.07;2.00;;;;;;;;;;5055935;28;20071;-76
2022/11/08 13:18:56;;;;;;;7.30;1.88;;;;;;;;;;5055940;28;20079;-76
2022/11/08 13:21:24;;;;;;;2.78;1.65;;;;;;;;;;5056105;28;20098;-76
2022/11/08 13:23:50;;;;;;;10.20;2.13;;;;;;;;;;5056532;28;20057;-75
2022/11/08 13:26:21;;;;;;;4.85;1.92;;;;;;;;;;5054991;28;20029;-76
2022/11/08 13:28:47;;;;;;;6.25;1.88;;;;;;;;;;5056085;28;20111;-76
2022/11/08 13:31:18;;;;;;;4.43;1.75;;;;;;;;;;5037801;28;20391;-76
2022/11/08 13:33:58;;;;;;;4.25;2.03;;;;;;;;;;5055647;28;20029;-76
2022/11/08 13:36:33;;;;;;;8.32;2.20;;;;;;;;;;5055591;28;20020;-75
2022/11/08 13:39:36;;;;;;;4.75;2.35;;;;;;;;;;5055548;28;20513;-76
2022/11/08 13:42:37;;;;;;;5.18;2.35;;;;;;;;;;5042964;28;20490;-75
2022/11/08 13:45:15;;;;;;;5.70;2.40;;;;;;;;;;5055722;28;20048;-77
2022/11/08 13:47:43;;;;;;;5.90;2.60;;;;;;;;;;5037520;28;20029;-76
2022/11/08 13:50:30;;;;;;;6.50;2.90;;;;;;;;;;5037239;28;20113;-75
2022/11/08 13:53:17;;;;;;;7.20;2.83;;;;;;;;;;5055523;28;20016;-75
2022/11/08 13:55:42;;;;;;;6.43;2.78;;;;;;;;;;5055487;28;20029;-76
2022/11/08 13:58:31;;;;;;;6.70;3.17;;;;;;;;;;5037250;28;20067;-76
2022/11/08 14:00:57;;;;;;;5.40;2.63;;;;;;;;;;5055090;28;20258;-76
2022/11/08 14:03:46;;;;;;;5.68;2.70;;;;;;;;;;5054367;28;20066;-75
2022/11/08 14:06:33;;;;;;;5.28;3.03;;;;;;;;;;5042556;28;20452;-76
2022/11/08 14:09:07;;;;;;;8.30;3.10;;;;;;;;;;5037089;28;20444;-75
2022/11/08 14:11:45;;;;;;;6.38;3.15;;;;;;;;;;5055095;28;20082;-76
2022/11/08 14:14:29;;;;;;;5.28;2.75;;;;;;;;;;5036979;28;20029;-76
2022/11/08 14:17:37;;;;;;;7.45;3.25;;;;;;;;;;5037599;28;20031;-76
2022/11/08 14:20:40;;;;;;;10.10;3.08;;;;;;;;;;5055377;28;20031;-76
2022/11/08 14:23:17;;;;;;;5.95;2.92;;;;;;;;;;4973943;28;20097;-76
2022/11/08 14:25:47;;;;;;;6.70;3.13;;;;;;;;;;5045377;28;20033;-76
2022/11/08 14:28:31;;;;;;;8.90;3.00;;;;;;;;;;5054727;28;20108;-76
2022/11/08 14:30:59;;;;;;;6.78;3.25;;;;;;;;;;5054495;28;20036;-76
2022/11/08 14:33:29;;;;;;;6.40;3.10;;;;;;;;;;5036531;28;20025;-76
2022/11/08 14:36:01;;;;;;;8.43;3.13;;;;;;;;;;5036526;28;20028;-76
2022/11/08 14:38:28;;;;;;;11.43;3.00;;;;;;;;;;5054487;28;20028;-76
2022/11/08 14:40:58;;;;;;;8.45;3.35;;;;;;;;;;5036368;28;20025;-76
2022/11/08 14:43:24;;;;;;;7.78;3.20;;;;;;;;;;5054604;28;20479;-76
2022/11/08 14:45:50;;;;;;;5.07;2.90;;;;;;;;;;5054064;28;20029;-77
2022/11/08 14:48:26;;;;;;;5.75;2.95;;;;;;;;;;5054219;28;20025;-75
2022/11/08 14:51:03;;;;;;;7.47;2.90;;;;;;;;;;5054024;28;20056;-75
2022/11/08 14:53:42;;;;;;;6.25;2.80;;;;;;;;;;5054049;28;20033;-75
2022/11/08 14:56:26;;;;;;;8.15;3.10;;;;;;;;;;5054237;28;20371;-76
2022/11/08 14:58:53;;;;;;;7.75;3.25;;;;;;;;;;5053769;28;20074;-77
2022/11/08 15:01:21;;;;;;;4.95;3.10;;;;;;;;;;5053832;28;20021;-76
2022/11/08 15:04:01;;;;;;;8.02;3.67;;;;;;;;;;5035958;28;20386;-76
2022/11/08 15:06:32;;;;;;;7.53;2.97;;;;;;;;;;5054443;28;20024;-76
2022/11/08 15:08:59;;;;;;;9.80;3.42;;;;;;;;;;5035852;28;20025;-76
2022/11/08 15:11:29;;;;;;;7.65;3.15;;;;;;;;;;5053693;28;20059;-76
2022/11/08 15:14:04;;;;;;;8.65;3.25;;;;;;;;;;5053988;28;20029;-75
2022/11/08 15:16:44;;;;;;;5.53;2.88;;;;;;;;;;5035744;28;20048;-77
2022/11/08 15:19:29;;;;;;;8.85;3.40;;;;;;;;;;5053788;28;20100;-76
2022/11/08 15:21:57;;;;;;;7.05;3.42;;;;;;;;;;5035961;28;20025;-76
2022/11/08 15:24:36;;;;;;;13.30;3.20;;;;;;;;;;5052396;28;20029;-75